Time;durP1;ratioP1;P1;durP2;ratioP2;P2;SDS_P1;SDS_P2;PMS_P1;PMS_P2;Temp;Humidity;BMP_temperature;BMP_pressure;BME280_temperature;BME280_humidity;BME280_pressure;Samples;Min_cycle;Max_cycle;Signal;HPM_P1;HPM_P2
2022/09/30 00:00:27;;;;;;;7.80;7.10;;;9.30;94.60;;;;;;5049298;28;20506;-70
2022/09/30 00:02:54;;;;;;;8.30;7.60;;;9.20;94.40;;;;;;5046997;28;20440;-70
2022/09/30 00:05:21;;;;;;;7.95;7.20;;;9.20;94.50;;;;;;5048594;28;20429;-70
2022/09/30 00:07:49;;;;;;;8.45;7.75;;;9.20;94.60;;;;;;5047379;28;20528;-70
2022/09/30 00:10:16;;;;;;;7.93;7.25;;;9.20;94.60;;;;;;5044943;28;20436;-70
2022/09/30 00:12:43;;;;;;;7.30;6.70;;;9.20;94.70;;;;;;5044522;28;21182;-70
2022/09/30 00:15:10;;;;;;;7.57;6.88;;;9.20;94.70;;;;;;5044697;28;20431;-70
2022/09/30 00:17:39;;;;;;;7.00;6.40;;;9.20;94.60;;;;;;5043116;28;20451;-70
2022/09/30 00:20:07;;;;;;;8.20;7.40;;;9.10;94.50;;;;;;5049124;28;20524;-70
2022/09/30 00:22:33;;;;;;;8.00;7.20;;;9.10;94.30;;;;;;5045477;28;20432;-71
2022/09/30 00:25:00;;;;;;;8.30;7.50;;;9.10;94.40;;;;;;5047993;28;20536;-71
2022/09/30 00:27:27;;;;;;;7.80;7.20;;;9.00;94.50;;;;;;5047617;28;20513;-71
2022/09/30 00:29:54;;;;;;;8.15;7.40;;;9.00;94.70;;;;;;5048219;28;20773;-70
2022/09/30 00:32:21;;;;;;;7.55;6.80;;;9.00;94.80;;;;;;5047353;28;21052;-70
2022/09/30 00:34:49;;;;;;;7.90;7.20;;;9.00;94.80;;;;;;5047044;28;20483;-70
2022/09/30 00:37:16;;;;;;;8.10;7.30;;;8.90;95.10;;;;;;5046447;28;20531;-71
2022/09/30 00:39:43;;;;;;;7.47;6.88;;;8.90;95.20;;;;;;5048544;28;20555;-71
2022/09/30 00:42:14;;;;;;;8.40;7.70;;;8.90;95.10;;;;;;5047243;28;20925;-70
2022/09/30 00:44:49;;;;;;;7.50;6.80;;;8.90;95.10;;;;;;5047926;28;20552;-71
2022/09/30 00:47:49;;;;;;;7.30;6.70;;;8.90;95.10;;;;;;5044512;28;20944;-71
2022/09/30 00:50:33;;;;;;;8.27;7.10;;;8.90;95.20;;;;;;5035002;28;20855;-69
2022/09/30 00:53:13;;;;;;;8.00;7.30;;;8.80;95.20;;;;;;5043917;28;20935;-70
2022/09/30 00:55:47;;;;;;;8.40;7.50;;;8.80;95.10;;;;;;5042757;28;21020;-70
2022/09/30 00:58:21;;;;;;;8.20;7.50;;;8.70;95.10;;;;;;5076832;22;20440;-71
2022/09/30 01:00:50;;;;;;;8.00;7.20;;;8.70;95.10;;;;;;5067024;28;20432;-71
2022/09/30 01:03:18;;;;;;;8.33;7.63;;;8.70;95.20;;;;;;5067364;28;20519;-70
2022/09/30 01:05:46;;;;;;;7.60;7.00;;;8.60;95.10;;;;;;5067367;28;20543;-70
2022/09/30 01:08:13;;;;;;;8.00;7.40;;;8.60;95.30;;;;;;5066485;28;20455;-70
2022/09/30 01:10:40;;;;;;;7.55;6.93;;;8.50;95.30;;;;;;5064732;28;20509;-69
2022/09/30 01:13:07;;;;;;;8.50;7.70;;;8.50;95.20;;;;;;5059390;28;20891;-69
2022/09/30 01:15:58;;;;;;;8.60;7.90;;;8.50;95.30;;;;;;5067146;28;20666;-69
2022/09/30 01:18:31;;;;;;;8.30;7.60;;;8.40;95.40;;;;;;5064086;28;20427;-69
2022/09/30 01:21:24;;;;;;;8.27;7.47;;;8.40;95.50;;;;;;5063920;28;20962;-69
2022/09/30 01:24:16;;;;;;;8.07;7.38;;;8.40;95.60;;;;;;5010587;28;20525;-69
2022/09/30 01:26:59;;;;;;;8.40;7.60;;;8.40;95.50;;;;;;5064529;28;20442;-69
2022/09/30 01:30:09;;;;;;;8.20;7.40;;;8.40;95.50;;;;;;5060961;28;20837;-69
2022/09/30 01:32:58;;;;;;;8.65;7.85;;;8.40;95.40;;;;;;5055787;28;20498;-71
2022/09/30 01:35:38;;;;;;;8.07;7.40;;;8.30;95.30;;;;;;5043091;28;20434;-70
2022/09/30 01:38:13;;;;;;;8.23;7.53;;;8.30;95.30;;;;;;5065534;28;20529;-70
2022/09/30 01:40:45;;;;;;;9.48;8.65;;;8.30;95.40;;;;;;5071905;28;20516;-70
2022/09/30 01:43:20;;;;;;;8.25;7.55;;;8.30;95.40;;;;;;5056240;28;20493;-69
2022/09/30 01:45:51;;;;;;;8.18;7.50;;;8.20;95.50;;;;;;5052123;28;20591;-70
2022/09/30 01:48:24;;;;;;;8.50;7.80;;;8.30;95.70;;;;;;5063653;28;20447;-70
2022/09/30 01:50:56;;;;;;;8.40;7.70;;;8.20;95.70;;;;;;5060764;28;20532;-71
2022/09/30 01:53:31;;;;;;;7.50;6.90;;;8.20;95.70;;;;;;5065413;28;20489;-69
2022/09/30 01:56:03;;;;;;;8.65;7.78;;;8.20;95.60;;;;;;5060877;28;20512;-70
2022/09/30 01:58:37;;;;;;;8.80;8.10;;;8.20;95.50;;;;;;5061214;28;20926;-70
2022/09/30 02:01:09;;;;;;;8.80;8.10;;;8.10;95.50;;;;;;5061141;28;20477;-71
2022/09/30 02:03:41;;;;;;;8.65;7.95;;;8.10;95.50;;;;;;5067611;28;20552;-70
2022/09/30 02:06:11;;;;;;;8.40;7.70;;;8.10;95.50;;;;;;5056970;28;20522;-71
2022/09/30 02:08:43;;;;;;;8.70;7.90;;;8.10;95.50;;;;;;5064434;28;20435;-70
2022/09/30 02:11:14;;;;;;;8.57;7.70;;;8.00;95.50;;;;;;5073118;28;20580;-71
2022/09/30 02:13:44;;;;;;;8.60;7.90;;;8.00;95.60;;;;;;5063481;28;20456;-69
2022/09/30 02:16:16;;;;;;;8.30;7.60;;;8.00;95.70;;;;;;5068155;28;20427;-71
2022/09/30 02:18:49;;;;;;;8.75;7.95;;;8.00;95.60;;;;;;5071149;28;20482;-70
2022/09/30 02:21:19;;;;;;;8.85;7.95;;;8.00;95.60;;;;;;5056535;28;20961;-70
2022/09/30 02:23:49;;;;;;;8.88;7.97;;;7.90;95.60;;;;;;5063398;28;20512;-70
2022/09/30 02:26:22;;;;;;;8.85;8.15;;;7.90;95.60;;;;;;5065775;28;20439;-70
2022/09/30 02:28:52;;;;;;;8.85;8.05;;;7.90;95.50;;;;;;5067360;28;20429;-70
2022/09/30 02:31:22;;;;;;;8.80;8.00;;;7.90;95.50;;;;;;5067363;28;20788;-69
2022/09/30 02:33:54;;;;;;;8.50;7.80;;;7.80;95.50;;;;;;5062376;28;20438;-70
2022/09/30 02:36:27;;;;;;;8.85;8.15;;;7.80;95.50;;;;;;5062009;28;20475;-70
2022/09/30 02:39:00;;;;;;;8.52;7.82;;;7.80;95.40;;;;;;5062873;28;20470;-70
2022/09/30 02:41:30;;;;;;;8.63;7.90;;;7.70;95.40;;;;;;5058474;28;20826;-70
2022/09/30 02:43:57;;;;;;;9.05;8.25;;;7.70;95.50;;;;;;5062918;28;20799;-71
2022/09/30 02:46:32;;;;;;;8.00;7.30;;;7.70;95.60;;;;;;5065846;28;20640;-70
2022/09/30 02:49:04;;;;;;;8.90;8.20;;;7.70;95.60;;;;;;5059924;28;20442;-70
2022/09/30 02:51:39;;;;;;;9.30;8.40;;;7.60;95.70;;;;;;5063369;28;20441;-71
2022/09/30 02:54:17;;;;;;;9.40;8.60;;;7.60;95.80;;;;;;5063438;28;20762;-70
2022/09/30 02:56:54;;;;;;;8.50;7.80;;;7.60;96.00;;;;;;5058008;28;20496;-70
2022/09/30 02:59:21;;;;;;;9.25;8.50;;;7.60;96.00;;;;;;5067637;28;20531;-70
2022/09/30 03:01:48;;;;;;;8.05;7.45;;;7.60;96.00;;;;;;5067336;28;20752;-70
2022/09/30 03:04:22;;;;;;;9.43;8.60;;;7.60;96.10;;;;;;5068120;28;20427;-70
2022/09/30 03:06:49;;;;;;;8.55;7.82;;;7.60;96.10;;;;;;5072678;28;20473;-70
2022/09/30 03:09:16;;;;;;;7.95;7.35;;;7.60;96.00;;;;;;5070525;28;20430;-69
2022/09/30 03:11:43;;;;;;;8.23;7.63;;;7.50;96.00;;;;;;5072310;28;20431;-70
2022/09/30 03:14:24;;;;;;;8.50;7.70;;;7.50;96.10;;;;;;5068563;28;20427;-71
2022/09/30 03:17:32;;;;;;;8.05;7.45;;;7.50;96.20;;;;;;5070043;28;20445;-71
2022/09/30 03:20:15;;;;;;;8.52;7.70;;;7.50;96.20;;;;;;5067665;28;20430;-71
2022/09/30 03:23:05;;;;;;;8.73;7.83;;;7.50;96.30;;;;;;5068415;28;20506;-71
2022/09/30 03:25:42;;;;;;;8.82;7.57;;;7.50;96.20;;;;;;5039115;28;21237;-71
2022/09/30 03:28:19;;;;;;;8.30;7.60;;;7.50;96.30;;;;;;5069765;28;20431;-71
2022/09/30 03:30:54;;;;;;;8.95;8.15;;;7.40;96.20;;;;;;5067154;28;20445;-71
2022/09/30 03:33:25;;;;;;;8.60;7.80;;;7.50;96.50;;;;;;5065176;28;20435;-70
2022/09/30 03:36:00;;;;;;;8.40;7.70;;;7.50;96.50;;;;;;5064439;28;20557;-71
2022/09/30 03:38:37;;;;;;;8.27;7.57;;;7.50;96.50;;;;;;5072328;28;20922;-71
2022/09/30 03:41:10;;;;;;;8.68;7.88;;;7.50;96.40;;;;;;5068471;28;20434;-71
2022/09/30 03:43:42;;;;;;;8.50;7.70;;;7.40;96.40;;;;;;5067145;28;20982;-71
2022/09/30 03:46:20;;;;;;;8.57;7.88;;;7.40;96.30;;;;;;5067777;28;20568;-70
2022/09/30 03:48:49;;;;;;;7.95;7.20;;;7.40;96.20;;;;;;5065790;28;20435;-71
2022/09/30 03:51:18;;;;;;;8.63;7.90;;;7.30;96.10;;;;;;5057814;28;21081;-70
2022/09/30 03:53:46;;;;;;;8.90;8.10;;;7.30;96.10;;;;;;5069719;28;20547;-71
2022/09/30 03:56:13;;;;;;;8.27;7.53;;;7.30;96.10;;;;;;5070041;28;21022;-71
2022/09/30 03:58:43;;;;;;;8.57;7.88;;;7.30;96.10;;;;;;5069757;28;20449;-70
2022/09/30 04:01:17;;;;;;;9.02;8.23;;;7.20;96.10;;;;;;5058482;28;20446;-71
2022/09/30 04:03:44;;;;;;;9.10;8.40;;;7.20;96.10;;;;;;5068103;28;21078;-71
2022/09/30 04:06:13;;;;;;;8.77;8.00;;;7.20;96.10;;;;;;5052004;28;20459;-71
2022/09/30 04:08:42;;;;;;;8.88;8.18;;;7.20;96.10;;;;;;5055723;28;20791;-71
2022/09/30 04:11:09;;;;;;;9.33;8.43;;;7.20;96.10;;;;;;5056274;28;20901;-71
2022/09/30 04:13:36;;;;;;;9.40;8.55;;;7.20;96.10;;;;;;5053774;28;20918;-71
2022/09/30 04:16:03;;;;;;;8.75;8.05;;;7.20;96.10;;;;;;5059841;28;20446;-71
2022/09/30 04:18:30;;;;;;;10.00;9.10;;;7.10;96.10;;;;;;5070077;28;20416;-72
2022/09/30 04:20:57;;;;;;;9.75;8.95;;;7.10;96.20;;;;;;5061351;28;20757;-71
2022/09/30 04:23:24;;;;;;;9.15;8.35;;;7.10;96.10;;;;;;5066412;28;20441;-71
2022/09/30 04:25:55;;;;;;;9.00;8.35;;;7.10;96.20;;;;;;5069947;28;20945;-70
2022/09/30 04:28:23;;;;;;;9.10;8.30;;;7.10;96.20;;;;;;5063347;28;20494;-71
2022/09/30 04:30:50;;;;;;;9.30;8.60;;;7.00;96.10;;;;;;5065668;28;20799;-70
2022/09/30 04:33:16;;;;;;;9.18;8.38;;;7.00;96.20;;;;;;5054782;28;20435;-71
2022/09/30 04:35:43;;;;;;;9.60;8.80;;;7.00;96.30;;;;;;5063299;28;20423;-74
2022/09/30 04:38:10;;;;;;;9.10;8.30;;;7.00;96.40;;;;;;5060477;28;20768;-70
2022/09/30 04:40:37;;;;;;;8.80;8.10;;;7.00;96.50;;;;;;5060221;28;20449;-70
2022/09/30 04:43:06;;;;;;;8.50;7.80;;;7.00;96.60;;;;;;5060045;28;20434;-71
2022/09/30 04:45:33;;;;;;;7.90;7.20;;;7.00;96.50;;;;;;5070454;28;20419;-70
2022/09/30 04:47:59;;;;;;;8.80;8.05;;;6.90;96.30;;;;;;5054599;28;20513;-70
2022/09/30 04:50:26;;;;;;;8.80;8.10;;;6.90;96.30;;;;;;5050639;28;20920;-70
2022/09/30 04:52:56;;;;;;;9.77;8.90;;;6.90;96.40;;;;;;5043579;28;20465;-71
2022/09/30 04:55:22;;;;;;;8.98;8.07;;;7.00;96.20;;;;;;5051201;28;20516;-71
2022/09/30 04:57:50;;;;;;;8.70;7.88;;;6.90;96.20;;;;;;5049356;28;20421;-71
2022/09/30 05:00:19;;;;;;;9.10;8.40;;;6.90;96.10;;;;;;5049410;28;20490;-71
2022/09/30 05:02:46;;;;;;;8.20;7.40;;;6.90;96.20;;;;;;5049214;28;20558;-71
2022/09/30 05:05:13;;;;;;;9.07;8.30;;;6.80;96.30;;;;;;5049179;28;20442;-71
2022/09/30 05:07:40;;;;;;;8.80;8.10;;;6.90;96.40;;;;;;5052193;28;20784;-71
2022/09/30 05:10:10;;;;;;;9.07;8.37;;;6.80;96.40;;;;;;5051602;28;20612;-71
2022/09/30 05:12:36;;;;;;;8.40;7.60;;;6.80;96.30;;;;;;5048382;28;20518;-70
2022/09/30 05:15:04;;;;;;;9.40;8.50;;;6.80;96.50;;;;;;5049836;28;20447;-71
2022/09/30 05:17:32;;;;;;;9.03;8.23;;;6.80;96.60;;;;;;5049960;28;20410;-70
2022/09/30 05:19:59;;;;;;;8.80;8.10;;;6.80;96.50;;;;;;5066932;28;20427;-70
2022/09/30 05:22:27;;;;;;;9.15;8.35;;;6.70;96.50;;;;;;5055547;28;20501;-70
2022/09/30 05:24:55;;;;;;;9.20;8.50;;;6.70;96.40;;;;;;5057182;28;20419;-70
2022/09/30 05:27:22;;;;;;;9.52;8.73;;;6.60;96.30;;;;;;5064688;28;20423;-71
2022/09/30 05:29:49;;;;;;;9.52;8.63;;;6.60;96.20;;;;;;5065119;28;20439;-71
2022/09/30 05:32:16;;;;;;;10.18;9.18;;;6.50;96.60;;;;;;5064411;28;20800;-71
2022/09/30 05:34:44;;;;;;;10.43;9.43;;;6.50;96.40;;;;;;5059628;28;20494;-70
2022/09/30 05:37:11;;;;;;;9.55;8.73;;;6.50;96.50;;;;;;5062939;28;20516;-71
2022/09/30 05:39:38;;;;;;;9.45;8.65;;;6.50;96.60;;;;;;5062814;28;20407;-70
2022/09/30 05:42:05;;;;;;;9.80;8.80;;;6.50;96.50;;;;;;5058816;28;20435;-70
2022/09/30 05:44:31;;;;;;;9.75;8.95;;;6.40;96.50;;;;;;5066381;28;21153;-71
2022/09/30 05:46:58;;;;;;;8.65;7.80;;;6.40;96.40;;;;;;5057215;28;20559;-70
2022/09/30 05:49:25;;;;;;;9.60;8.70;;;6.40;96.40;;;;;;5061458;28;20425;-70
2022/09/30 05:51:53;;;;;;;8.65;7.95;;;6.30;96.40;;;;;;5062651;28;20433;-71
2022/09/30 05:54:20;;;;;;;9.55;8.65;;;6.30;96.30;;;;;;5061539;28;20438;-71
2022/09/30 05:56:47;;;;;;;9.32;8.48;;;6.40;96.40;;;;;;5061031;28;20432;-71
2022/09/30 05:59:13;;;;;;;8.90;8.20;;;6.40;96.30;;;;;;5063277;28;20432;-70
2022/09/30 06:01:40;;;;;;;8.63;7.82;;;6.40;96.30;;;;;;5064430;28;20530;-70
2022/09/30 06:04:07;;;;;;;8.80;8.00;;;6.40;96.30;;;;;;5057117;28;20541;-70
2022/09/30 06:06:34;;;;;;;8.38;7.57;;;6.50;96.30;;;;;;5064524;28;20443;-70
2022/09/30 06:09:02;;;;;;;8.20;7.50;;;6.50;96.30;;;;;;5064362;28;20436;-70
2022/09/30 06:11:28;;;;;;;8.73;7.85;;;6.60;96.30;;;;;;5067880;28;20522;-70
2022/09/30 06:13:56;;;;;;;8.30;7.60;;;6.60;96.20;;;;;;5058227;28;20868;-70
2022/09/30 06:16:23;;;;;;;8.38;7.68;;;6.70;96.10;;;;;;5053004;28;20433;-70
2022/09/30 06:18:50;;;;;;;9.63;8.60;;;6.70;95.80;;;;;;5050435;28;20429;-70
2022/09/30 06:21:18;;;;;;;8.73;7.88;;;6.70;95.60;;;;;;5059484;28;20438;-70
2022/09/30 06:23:45;;;;;;;8.63;7.80;;;6.70;95.60;;;;;;5052688;28;20417;-70
2022/09/30 06:26:14;;;;;;;9.45;8.50;;;6.80;95.60;;;;;;5063721;28;20434;-70
2022/09/30 06:28:42;;;;;;;10.60;8.80;;;6.70;95.40;;;;;;5063951;28;20503;-70
2022/09/30 06:31:09;;;;;;;9.00;8.10;;;6.70;95.50;;;;;;5062905;28;20442;-70
2022/09/30 06:33:35;;;;;;;9.40;8.40;;;6.70;96.00;;;;;;5059904;28;20937;-70
2022/09/30 06:36:04;;;;;;;8.80;8.00;;;6.70;95.70;;;;;;5059213;28;20457;-70
2022/09/30 06:38:33;;;;;;;11.50;8.80;;;6.80;95.80;;;;;;5063395;28;20432;-70
2022/09/30 06:40:59;;;;;;;8.85;8.00;;;6.80;95.70;;;;;;5063504;28;20419;-70
2022/09/30 06:43:28;;;;;;;8.50;7.80;;;6.90;95.70;;;;;;5061473;28;20921;-70
2022/09/30 06:45:55;;;;;;;9.30;8.00;;;6.90;95.60;;;;;;5063984;28;20851;-70
2022/09/30 06:48:22;;;;;;;8.48;7.60;;;7.00;95.60;;;;;;5069311;28;20452;-70
2022/09/30 06:50:52;;;;;;;7.53;6.93;;;7.10;95.40;;;;;;5058209;28;20434;-70
2022/09/30 06:53:18;;;;;;;7.88;7.28;;;7.10;95.00;;;;;;5062937;28;20423;-70
2022/09/30 06:55:45;;;;;;;8.57;7.78;;;7.20;94.80;;;;;;5060698;28;20443;-70
2022/09/30 06:58:15;;;;;;;7.90;7.10;;;7.30;94.60;;;;;;5072699;22;20432;-71
2022/09/30 07:00:43;;;;;;;7.30;6.60;;;7.30;94.40;;;;;;5042819;28;20978;-71
2022/09/30 07:03:28;;;;;;;8.48;7.78;;;7.40;94.40;;;;;;5046555;28;20430;-69
2022/09/30 07:05:57;;;;;;;7.77;7.00;;;7.60;94.50;;;;;;5047640;28;20434;-70
2022/09/30 07:08:25;;;;;;;7.80;7.10;;;7.70;94.30;;;;;;5047572;28;20774;-70
2022/09/30 07:10:52;;;;;;;7.70;7.10;;;7.80;93.70;;;;;;5049617;28;20429;-70
2022/09/30 07:13:19;;;;;;;7.45;6.85;;;7.90;93.10;;;;;;5061585;28;20447;-70
2022/09/30 07:15:49;;;;;;;7.30;6.70;;;8.00;92.90;;;;;;5052480;28;20444;-69
2022/09/30 07:18:19;;;;;;;7.35;6.75;;;8.10;92.80;;;;;;5052318;28;20928;-70
2022/09/30 07:20:48;;;;;;;7.60;7.00;;;8.20;92.70;;;;;;5051396;28;20464;-71
2022/09/30 07:23:15;;;;;;;7.28;6.57;;;8.30;92.70;;;;;;5051738;28;20428;-70
2022/09/30 07:25:50;;;;;;;8.18;7.38;;;8.40;92.30;;;;;;5063745;28;20500;-70
2022/09/30 07:28:17;;;;;;;7.50;6.80;;;8.50;92.00;;;;;;5061862;28;20492;-70
2022/09/30 07:30:44;;;;;;;7.10;6.50;;;8.70;91.70;;;;;;5053429;28;20431;-70
2022/09/30 07:33:15;;;;;;;7.30;6.68;;;8.80;91.30;;;;;;5051435;28;20948;-71
2022/09/30 07:35:49;;;;;;;6.78;6.28;;;8.90;90.90;;;;;;5054080;28;20440;-70
2022/09/30 07:38:16;;;;;;;7.28;6.68;;;9.10;91.00;;;;;;5053192;28;20930;-69
2022/09/30 07:40:52;;;;;;;7.30;6.70;;;9.30;90.60;;;;;;5050128;28;20896;-71
2022/09/30 07:43:19;;;;;;;7.00;6.40;;;9.40;89.40;;;;;;5062697;28;20475;-69
2022/09/30 07:45:47;;;;;;;8.10;7.40;;;9.60;88.80;;;;;;5052079;28;20437;-69
2022/09/30 07:50:57;;;;;;;7.80;7.00;;;9.80;87.80;;;;;;5048419;28;20496;-70
2022/09/30 07:53:24;;;;;;;7.73;7.03;;;10.10;87.30;;;;;;5060716;28;20898;-70
2022/09/30 07:55:51;;;;;;;8.70;7.80;;;10.30;85.20;;;;;;5053537;28;20429;-70
2022/09/30 07:58:18;;;;;;;8.80;8.00;;;10.40;84.70;;;;;;5062399;28;20505;-70
2022/09/30 08:00:47;;;;;;;8.77;7.93;;;10.50;84.50;;;;;;5061227;28;20887;-70
2022/09/30 08:03:15;;;;;;;10.43;8.98;;;10.80;82.80;;;;;;5051499;28;20515;-70
2022/09/30 08:05:44;;;;;;;9.63;8.73;;;10.80;82.60;;;;;;5049528;28;20433;-69
2022/09/30 08:08:10;;;;;;;9.67;8.83;;;11.00;82.20;;;;;;5054659;28;20460;-69
2022/09/30 08:10:37;;;;;;;10.82;9.93;;;11.10;81.00;;;;;;5048055;28;20433;-69
2022/09/30 08:13:04;;;;;;;9.93;9.13;;;11.20;80.70;;;;;;5056287;28;20437;-69
2022/09/30 08:15:31;;;;;;;11.40;10.40;;;11.20;80.60;;;;;;5060242;28;20805;-69
2022/09/30 08:17:57;;;;;;;10.60;9.70;;;11.30;80.50;;;;;;5051087;28;20437;-69
2022/09/30 08:20:26;;;;;;;10.45;9.60;;;11.50;80.20;;;;;;5063383;28;20899;-69
2022/09/30 08:22:53;;;;;;;10.73;9.82;;;11.80;78.20;;;;;;5051976;28;20437;-70
2022/09/30 08:25:20;;;;;;;9.93;9.03;;;11.90;77.40;;;;;;5057749;28;20417;-69
2022/09/30 08:27:47;;;;;;;11.00;10.00;;;12.00;76.60;;;;;;5065620;28;20818;-69
2022/09/30 08:30:13;;;;;;;10.90;9.90;;;12.00;75.90;;;;;;5056098;28;20438;-69
2022/09/30 08:32:40;;;;;;;10.30;9.50;;;12.20;75.90;;;;;;5055102;28;20440;-69
2022/09/30 08:35:08;;;;;;;11.52;10.43;;;12.40;74.60;;;;;;5055647;28;20889;-70
2022/09/30 08:37:36;;;;;;;10.27;9.38;;;12.60;74.60;;;;;;5058117;28;20959;-69
2022/09/30 08:40:03;;;;;;;10.10;9.30;;;12.80;73.90;;;;;;5061432;28;20421;-68
2022/09/30 08:42:46;;;;;;;10.52;9.43;;;13.10;73.00;;;;;;5053805;28;20433;-70
2022/09/30 08:45:29;;;;;;;10.50;9.50;;;13.30;71.90;;;;;;5046717;28;20937;-70
2022/09/30 08:48:05;;;;;;;9.77;8.77;;;13.40;70.70;;;;;;5053739;28;20419;-70
2022/09/30 08:50:41;;;;;;;10.48;9.10;;;13.40;71.00;;;;;;5062966;28;20428;-70
2022/09/30 08:53:15;;;;;;;9.30;8.50;;;13.60;70.90;;;;;;5066410;28;20424;-69
2022/09/30 08:55:45;;;;;;;10.20;9.20;;;13.80;70.80;;;;;;5052607;28;20511;-69
2022/09/30 08:58:25;;;;;;;10.27;9.13;;;14.00;69.00;;;;;;5053187;28;20424;-69
2022/09/30 09:00:56;;;;;;;9.52;8.82;;;14.20;68.90;;;;;;5046719;28;20425;-69
2022/09/30 09:03:28;;;;;;;8.95;8.20;;;14.30;67.80;;;;;;5055229;28;20437;-69
2022/09/30 09:06:02;;;;;;;8.75;7.97;;;14.20;67.50;;;;;;5056624;28;20475;-70
2022/09/30 09:08:39;;;;;;;8.37;7.67;;;14.40;67.90;;;;;;5053034;28;20421;-69
2022/09/30 09:11:16;;;;;;;8.20;7.40;;;14.60;66.80;;;;;;5053168;28;20887;-70
2022/09/30 09:13:48;;;;;;;7.60;6.95;;;14.70;66.20;;;;;;5074503;28;20499;-70
2022/09/30 09:16:24;;;;;;;7.78;7.18;;;14.70;66.70;;;;;;5071923;28;20708;-69
2022/09/30 09:19:06;;;;;;;8.15;7.35;;;14.90;65.80;;;;;;5078714;28;20434;-69
2022/09/30 09:21:51;;;;;;;8.20;7.50;;;15.10;65.10;;;;;;5079029;28;20420;-69
2022/09/30 09:24:22;;;;;;;8.77;8.07;;;15.40;64.40;;;;;;5055108;28;20429;-69
2022/09/30 09:26:51;;;;;;;8.65;7.85;;;15.40;62.70;;;;;;5051855;28;20793;-70
2022/09/30 09:29:34;;;;;;;8.65;7.90;;;15.50;63.30;;;;;;5060554;28;20427;-70
2022/09/30 09:32:02;;;;;;;9.18;8.38;;;15.80;62.30;;;;;;5059817;28;20449;-69
2022/09/30 09:34:30;;;;;;;8.55;7.85;;;15.90;62.00;;;;;;5059339;28;20417;-69
2022/09/30 09:37:09;;;;;;;8.70;8.00;;;16.10;61.20;;;;;;5051622;28;20426;-70
2022/09/30 09:40:03;;;;;;;14.13;12.82;;;16.20;61.40;;;;;;5050028;28;20447;-69
2022/09/30 09:42:49;;;;;;;9.40;8.50;;;16.50;60.90;;;;;;5059674;28;20474;-69
2022/09/30 09:45:26;;;;;;;11.10;8.73;;;16.90;59.30;;;;;;5061052;28;20949;-69
2022/09/30 09:47:55;;;;;;;9.10;8.20;;;17.30;57.60;;;;;;5052437;28;20509;-70
2022/09/30 09:50:33;;;;;;;8.90;8.20;;;17.40;57.00;;;;;;5047131;28;20778;-71
2022/09/30 09:53:15;;;;;;;9.60;8.73;;;17.60;56.60;;;;;;5062265;28;20415;-69
2022/09/30 09:55:44;;;;;;;9.40;8.60;;;17.70;55.90;;;;;;5052367;28;20526;-70
2022/09/30 09:58:12;;;;;;;9.35;8.60;;;17.40;56.80;;;;;;5050289;28;20991;-69
2022/09/30 10:03:27;;;;;;;10.15;9.15;;;17.50;56.50;;;;;;5032459;28;20531;-70
2022/09/30 10:06:03;;;;;;;9.05;8.15;;;17.60;56.00;;;;;;5047900;28;20421;-70
2022/09/30 10:08:32;;;;;;;8.20;7.40;;;17.90;56.20;;;;;;5045942;28;20515;-71
2022/09/30 10:11:02;;;;;;;8.70;8.00;;;18.20;55.10;;;;;;5053769;28;20433;-69
2022/09/30 10:13:31;;;;;;;8.88;8.18;;;18.60;54.80;;;;;;5060159;28;20427;-70
2022/09/30 10:16:00;;;;;;;8.45;7.55;;;18.80;53.20;;;;;;5069567;28;20533;-70
2022/09/30 10:18:29;;;;;;;8.70;7.90;;;18.90;52.50;;;;;;5056657;28;20431;-69
2022/09/30 10:20:59;;;;;;;7.32;6.72;;;18.90;51.40;;;;;;5058372;28;20431;-70
2022/09/30 10:23:29;;;;;;;7.97;7.28;;;18.90;53.10;;;;;;5074796;28;20414;-71
2022/09/30 10:25:58;;;;;;;7.65;6.95;;;19.10;51.90;;;;;;5068678;28;20423;-70
2022/09/30 10:28:29;;;;;;;7.82;7.20;;;19.30;51.70;;;;;;5078125;28;20432;-70
2022/09/30 10:31:00;;;;;;;7.10;6.50;;;19.30;51.00;;;;;;5084293;28;20436;-70
2022/09/30 10:33:30;;;;;;;7.55;6.50;;;19.40;51.50;;;;;;5066024;28;20439;-71
2022/09/30 10:36:05;;;;;;;7.82;7.10;;;19.70;50.00;;;;;;5055007;28;20897;-69
2022/09/30 10:38:33;;;;;;;6.80;6.20;;;19.90;49.20;;;;;;5058631;28;20427;-70
2022/09/30 10:41:01;;;;;;;7.00;6.40;;;19.90;49.50;;;;;;5063489;28;20432;-70
2022/09/30 10:43:33;;;;;;;6.68;6.07;;;20.00;48.40;;;;;;5059185;28;20431;-70
2022/09/30 10:46:02;;;;;;;5.75;5.25;;;19.90;48.20;;;;;;5065113;28;20486;-70
2022/09/30 10:48:34;;;;;;;6.50;5.90;;;20.10;48.90;;;;;;5070957;28;20431;-71
2022/09/30 10:51:02;;;;;;;5.90;5.40;;;20.40;48.00;;;;;;5052135;28;20461;-70
2022/09/30 10:53:32;;;;;;;6.30;5.80;;;20.70;47.40;;;;;;5058860;28;20527;-70
2022/09/30 10:56:00;;;;;;;6.65;6.05;;;21.00;46.60;;;;;;5069714;28;20421;-69
2022/09/30 10:58:42;;;;;;;6.47;5.88;;;20.90;45.90;;;;;;5056945;28;20475;-70
2022/09/30 11:01:20;;;;;;;6.63;6.00;;;21.10;45.60;;;;;;5064171;28;20433;-72
2022/09/30 11:03:56;;;;;;;6.20;5.40;;;21.20;44.50;;;;;;5057754;28;20433;-71
2022/09/30 11:06:24;;;;;;;6.20;5.60;;;21.40;44.90;;;;;;5063488;28;20441;-71
2022/09/30 11:08:56;;;;;;;5.40;5.00;;;21.40;43.90;;;;;;5067423;28;20486;-70
2022/09/30 11:11:27;;;;;;;5.90;5.30;;;21.40;43.90;;;;;;5049377;28;20538;-70
2022/09/30 11:14:02;;;;;;;6.85;6.25;;;21.50;43.50;;;;;;5070030;28;20938;-70
2022/09/30 11:16:36;;;;;;;5.82;5.32;;;21.60;43.20;;;;;;5090984;28;20439;-70
2022/09/30 11:19:09;;;;;;;4.50;4.10;;;21.80;42.20;;;;;;5077800;28;20409;-68
2022/09/30 11:21:42;;;;;;;4.50;4.10;;;21.80;42.50;;;;;;5082104;28;20402;-70
2022/09/30 11:24:22;;;;;;;5.45;4.10;;;22.00;42.50;;;;;;5079240;28;20430;-71
2022/09/30 11:26:59;;;;;;;4.33;3.90;;;22.10;42.10;;;;;;5060624;28;20398;-69
2022/09/30 11:29:47;;;;;;;4.90;4.50;;;22.40;41.30;;;;;;5061240;28;20428;-69
2022/09/30 11:32:24;;;;;;;4.27;3.87;;;22.40;41.00;;;;;;5074009;28;20434;-69
2022/09/30 11:35:02;;;;;;;4.25;3.85;;;22.20;40.10;;;;;;5056248;28;20441;-71
2022/09/30 11:37:40;;;;;;;4.90;3.80;;;22.20;40.60;;;;;;5057093;28;20428;-71
2022/09/30 11:40:30;;;;;;;3.97;3.47;;;22.40;39.50;;;;;;5053597;28;20447;-69
2022/09/30 11:43:06;;;;;;;4.65;3.58;;;22.40;40.10;;;;;;5060788;28;20423;-69
2022/09/30 11:45:45;;;;;;;4.30;3.28;;;22.40;40.60;;;;;;5065591;28;20432;-72
2022/09/30 11:48:34;;;;;;;3.80;3.30;;;22.50;40.60;;;;;;5062875;28;20795;-69
2022/09/30 11:51:09;;;;;;;3.70;3.10;;;22.60;40.30;;;;;;5059748;28;20433;-70
2022/09/30 11:53:47;;;;;;;4.00;3.17;;;22.60;39.70;;;;;;5067692;28;20469;-72
2022/09/30 11:56:25;;;;;;;3.50;3.20;;;22.50;39.00;;;;;;5063880;28;21144;-71
2022/09/30 11:58:56;;;;;;;3.60;3.30;;;22.20;39.30;;;;;;5050771;28;20438;-72
2022/09/30 12:01:32;;;;;;;5.38;2.90;;;21.80;39.80;;;;;;5056539;28;20428;-71
2022/09/30 12:04:06;;;;;;;4.20;3.40;;;21.40;41.90;;;;;;5063284;28;20645;-70
2022/09/30 12:06:37;;;;;;;3.60;2.88;;;21.00;41.20;;;;;;5057032;28;20432;-71
2022/09/30 12:09:14;;;;;;;3.17;2.70;;;20.70;42.70;;;;;;5057167;28;20533;-70
2022/09/30 12:11:48;;;;;;;3.42;3.13;;;20.40;43.90;;;;;;5058935;28;21147;-71
2022/09/30 12:14:20;;;;;;;3.60;3.10;;;20.10;43.20;;;;;;5054888;28;20814;-70
2022/09/30 12:16:50;;;;;;;4.15;3.50;;;20.00;45.30;;;;;;5066364;28;20452;-71
2022/09/30 12:19:22;;;;;;;6.03;3.42;;;20.20;45.00;;;;;;5057157;28;20856;-70
2022/09/30 12:21:55;;;;;;;3.53;3.20;;;20.40;44.70;;;;;;5065936;28;20416;-69
2022/09/30 12:24:27;;;;;;;3.37;2.90;;;20.30;43.20;;;;;;5052308;28;20430;-71
2022/09/30 12:26:54;;;;;;;3.30;3.00;;;20.50;43.80;;;;;;5066506;28;20423;-70
2022/09/30 12:32:46;;;;;;;3.78;2.88;;;21.30;43.20;;;;;;5048983;28;20555;-72
2022/09/30 12:35:33;;;;;;;3.65;3.35;;;21.90;41.00;;;;;;5047450;28;20434;-72
2022/09/30 12:38:16;;;;;;;3.63;2.70;;;22.10;39.10;;;;;;5060226;28;20433;-71
2022/09/30 12:41:01;;;;;;;2.60;2.40;;;21.60;40.60;;;;;;5052629;28;20432;-71
2022/09/30 12:44:01;;;;;;;3.28;2.03;;;21.50;41.90;;;;;;5050649;28;20421;-70
2022/09/30 12:46:48;;;;;;;3.53;2.38;;;22.50;39.80;;;;;;5044754;28;20416;-70
2022/09/30 12:49:22;;;;;;;2.55;2.05;;;23.50;37.90;;;;;;5063768;28;20417;-70
2022/09/30 12:51:51;;;;;;;3.67;2.40;;;24.10;35.40;;;;;;5059136;28;20447;-71
2022/09/30 12:54:21;;;;;;;2.35;1.80;;;24.30;35.00;;;;;;5057142;28;20941;-71
2022/09/30 12:56:54;;;;;;;2.53;1.60;;;24.10;36.00;;;;;;5061821;28;20432;-70
2022/09/30 12:59:26;;;;;;;2.53;1.40;;;23.60;33.10;;;;;;5082329;22;20449;-67
2022/09/30 13:01:54;;;;;;;1.90;1.23;;;23.40;32.90;;;;;;5048269;28;20416;-67
2022/09/30 13:04:34;;;;;;;2.00;1.10;;;23.00;33.20;;;;;;5052442;28;20446;-67
2022/09/30 13:07:17;;;;;;;2.45;1.00;;;22.50;34.80;;;;;;5054495;28;20428;-68
2022/09/30 13:10:00;;;;;;;1.60;1.10;;;22.00;35.10;;;;;;5035290;28;21264;-66
2022/09/30 13:12:39;;;;;;;1.80;1.10;;;21.50;36.00;;;;;;5032367;28;20912;-67
2022/09/30 13:15:40;;;;;;;2.15;1.23;;;21.30;37.90;;;;;;5027317;28;20435;-67
2022/09/30 13:18:44;;;;;;;3.42;1.00;;;21.30;36.90;;;;;;4948254;28;21238;-68
2022/09/30 13:21:24;;;;;;;1.60;1.10;;;21.80;37.50;;;;;;4952134;28;20857;-67
2022/09/30 13:23:52;;;;;;;1.50;1.20;;;22.30;35.80;;;;;;5008346;28;20496;-68
2022/09/30 13:26:48;;;;;;;1.30;0.98;;;22.40;33.00;;;;;;5027847;28;20445;-67